createdAt,value
2018-03-03T00:01:42.713Z,95.40
2018-03-03T00:04:11.419Z,98.37
2018-03-03T00:06:39.028Z,97.90
2018-03-03T00:09:06.902Z,101.10
2018-03-03T00:11:34.874Z,94.50
2018-03-03T00:14:02.647Z,106.50
2018-03-03T00:16:30.434Z,103.10
2018-03-03T00:18:58.103Z,90.70
2018-03-03T00:21:26.367Z,84.67
2018-03-03T00:23:53.974Z,96.37
2018-03-03T00:26:21.603Z,104.27
2018-03-03T00:28:49.187Z,90.17
2018-03-03T00:31:16.807Z,98.77
2018-03-03T00:33:44.410Z,94.90
2018-03-03T00:36:12.041Z,84.40
2018-03-03T00:38:39.666Z,89.03
2018-03-03T00:41:07.318Z,84.67
2018-03-03T00:43:35.679Z,90.63
2018-03-03T00:46:04.034Z,90.33
2018-03-03T00:48:31.672Z,82.47
2018-03-03T00:50:59.278Z,90.10
2018-03-03T00:53:26.882Z,95.97
2018-03-03T00:55:54.500Z,98.53
2018-03-03T00:58:22.063Z,89.83
2018-03-03T01:00:49.668Z,96.47
2018-03-03T01:03:17.283Z,92.27
2018-03-03T01:05:45.314Z,89.80
2018-03-03T01:08:12.910Z,94.33
2018-03-03T01:10:40.504Z,93.10
2018-03-03T01:13:08.158Z,88.60
2018-03-03T01:15:35.751Z,86.37
2018-03-03T01:18:03.384Z,93.83
2018-03-03T01:20:30.972Z,90.50
2018-03-03T01:22:59.486Z,86.90
2018-03-03T01:25:27.103Z,98.50
2018-03-03T01:27:54.690Z,84.30
2018-03-03T01:30:22.303Z,93.13
2018-03-03T01:32:49.877Z,90.10
2018-03-03T01:35:17.487Z,88.67
2018-03-03T01:37:45.076Z,86.43
2018-03-03T01:40:12.690Z,88.57
2018-03-03T01:42:41.026Z,85.37
2018-03-03T01:45:08.631Z,84.77
2018-03-03T01:47:36.979Z,90.10
2018-03-03T01:50:04.575Z,83.93
2018-03-03T01:52:32.941Z,79.57
2018-03-03T01:55:01.277Z,78.67
2018-03-03T01:57:28.869Z,73.93
2018-03-03T01:59:56.615Z,77.47
2018-03-03T02:02:24.227Z,80.97
2018-03-03T02:04:51.811Z,81.73
2018-03-03T02:07:19.378Z,76.17
2018-03-03T02:09:47.068Z,75.63
2018-03-03T02:12:14.674Z,85.57
2018-03-03T02:14:42.274Z,83.70
2018-03-03T02:17:09.859Z,85.20
2018-03-03T02:19:37.450Z,82.03
2018-03-03T02:22:05.052Z,82.80
2018-03-03T02:24:32.625Z,75.00
2018-03-03T02:27:00.232Z,77.47
2018-03-03T02:29:27.812Z,82.40
2018-03-03T02:31:55.399Z,79.60
2018-03-03T02:34:24.558Z,83.57
2018-03-03T02:36:52.154Z,78.37
2018-03-03T02:39:20.484Z,77.83
2018-03-03T02:41:48.082Z,81.43
2018-03-03T02:44:15.685Z,79.53
2018-03-03T02:46:43.283Z,78.60
2018-03-03T02:49:10.879Z,78.57
2018-03-03T02:51:38.444Z,73.27
2018-03-03T02:54:06.016Z,77.80
2018-03-03T02:56:34.374Z,73.40
2018-03-03T02:59:01.953Z,78.60
2018-03-03T03:01:29.524Z,80.17
2018-03-03T03:03:57.107Z,76.87
2018-03-03T03:06:24.893Z,76.30
2018-03-03T03:08:52.524Z,75.63
2018-03-03T03:11:20.089Z,77.93
2018-03-03T03:13:48.479Z,77.70
2018-03-03T03:16:16.042Z,79.40
2018-03-03T03:18:43.614Z,78.93
2018-03-03T03:21:11.206Z,79.73
2018-03-03T03:23:38.835Z,85.93
2018-03-03T03:26:06.671Z,70.60
2018-03-03T03:28:35.067Z,76.03
2018-03-03T03:31:02.645Z,73.87
2018-03-03T03:33:30.206Z,74.33
2018-03-03T03:35:57.820Z,89.83
2018-03-03T03:38:25.423Z,74.57
2018-03-03T03:40:53.764Z,76.13
2018-03-03T03:43:21.397Z,72.80
2018-03-03T03:45:49.015Z,81.33
2018-03-03T03:48:17.378Z,78.50
2018-03-03T03:50:45.754Z,74.93
2018-03-03T03:53:13.395Z,84.47
2018-03-03T03:55:40.958Z,82.37
2018-03-03T03:58:08.536Z,84.93
2018-03-03T04:00:36.742Z,82.43
2018-03-03T04:03:04.334Z,84.17
2018-03-03T04:05:31.894Z,82.80
2018-03-03T04:07:59.494Z,81.37
2018-03-03T04:10:27.248Z,85.63
2018-03-03T04:12:54.810Z,86.43
2018-03-03T04:15:22.485Z,86.80
2018-03-03T04:17:50.242Z,89.20
2018-03-03T04:20:17.840Z,81.37
2018-03-03T04:22:46.186Z,87.10
2018-03-03T04:25:13.806Z,86.40
2018-03-03T04:27:41.444Z,88.13
2018-03-03T04:30:09.052Z,81.67
2018-03-03T04:32:36.672Z,83.27
2018-03-03T04:35:04.329Z,88.70
2018-03-03T04:37:31.935Z,84.40
2018-03-03T04:39:59.498Z,88.70
2018-03-03T04:42:27.860Z,90.10
2018-03-03T04:44:55.476Z,86.27
2018-03-03T04:47:23.116Z,78.37
2018-03-03T04:49:50.682Z,80.97
2018-03-03T04:52:18.315Z,87.83
2018-03-03T04:54:45.976Z,86.87
2018-03-03T04:57:13.595Z,86.00
2018-03-03T05:03:00.915Z,87.17
2018-03-03T05:05:46.372Z,87.53
2018-03-03T05:11:13.442Z,93.23
2018-03-03T05:13:44.590Z,90.20
2018-03-03T05:16:22.127Z,85.43
2018-03-03T05:22:01.011Z,60.73
2018-03-03T05:24:34.170Z,74.00
2018-03-03T05:27:07.373Z,80.63
2018-03-03T05:29:40.550Z,75.67
2018-03-03T05:32:13.934Z,78.57
2018-03-03T05:34:47.238Z,83.87
2018-03-03T05:40:22.385Z,76.03
2018-03-03T05:42:57.662Z,72.23
2018-03-03T05:45:42.933Z,75.17
2018-03-03T05:48:16.232Z,80.73
2018-03-03T05:50:49.454Z,74.13
2018-03-03T05:56:22.715Z,77.67
2018-03-03T05:58:55.959Z,69.43
2018-03-03T06:04:38.567Z,74.87
2018-03-03T06:07:12.621Z,69.87
2018-03-03T06:09:50.138Z,61.53
2018-03-03T06:12:17.775Z,71.17
2018-03-03T06:14:45.430Z,59.77
2018-03-03T06:17:13.033Z,53.63
2018-03-03T06:19:40.636Z,66.73
2018-03-03T06:22:08.223Z,60.67
2018-03-03T06:24:35.877Z,69.17
2018-03-03T06:27:03.474Z,64.13
2018-03-03T06:29:31.042Z,58.10
2018-03-03T06:31:58.645Z,62.43
2018-03-03T06:34:26.991Z,59.73
2018-03-03T06:36:55.551Z,74.20
2018-03-03T06:39:23.158Z,73.80
2018-03-03T06:41:50.738Z,75.50
2018-03-03T06:44:19.096Z,74.37
2018-03-03T06:46:46.716Z,75.97
2018-03-03T06:49:14.303Z,71.50
2018-03-03T06:51:41.900Z,75.10
2018-03-03T06:54:09.476Z,84.63
2018-03-03T06:56:37.868Z,83.80
2018-03-03T06:59:05.430Z,74.27
2018-03-03T07:01:32.996Z,60.00
2018-03-03T07:04:02.197Z,85.73
2018-03-03T07:06:34.065Z,75.73
2018-03-03T07:09:01.715Z,79.30
2018-03-03T07:11:29.316Z,78.90
2018-03-03T07:13:56.966Z,82.83
2018-03-03T07:16:24.825Z,77.07
2018-03-03T07:18:52.430Z,79.43
2018-03-03T07:21:20.037Z,79.53
2018-03-03T07:23:47.627Z,83.67
2018-03-03T07:26:15.222Z,77.67
2018-03-03T07:28:42.814Z,81.97
2018-03-03T07:31:10.410Z,83.77
2018-03-03T07:33:37.996Z,75.83
2018-03-03T07:36:05.628Z,79.00
2018-03-03T07:38:33.208Z,76.83
2018-03-03T07:41:00.790Z,74.47
2018-03-03T07:43:29.150Z,85.03
2018-03-03T07:45:56.719Z,82.40
2018-03-03T07:48:24.336Z,83.57
2018-03-03T07:50:51.971Z,88.27
2018-03-03T07:53:19.627Z,82.37
2018-03-03T07:55:47.250Z,84.03
2018-03-03T07:58:26.606Z,79.10
2018-03-03T08:00:54.192Z,79.80
2018-03-03T08:03:21.833Z,80.23
2018-03-03T08:05:49.439Z,82.10
2018-03-03T08:08:17.200Z,77.13
2018-03-03T08:10:44.841Z,77.87
2018-03-03T08:13:12.411Z,74.93
2018-03-03T08:15:40.036Z,83.50
2018-03-03T08:18:07.633Z,77.60
2018-03-03T08:20:35.225Z,71.87
2018-03-03T08:23:02.823Z,72.73
2018-03-03T08:25:30.475Z,78.20
2018-03-03T08:27:59.742Z,75.77
2018-03-03T08:30:27.368Z,77.50
2018-03-03T08:32:54.947Z,75.20
2018-03-03T08:35:22.547Z,80.93
2018-03-03T08:37:50.187Z,72.70
2018-03-03T08:45:23.615Z,70.87
2018-03-03T08:47:51.183Z,76.30
2018-03-03T08:50:18.884Z,74.73
2018-03-03T08:52:46.572Z,71.77
2018-03-03T08:55:14.930Z,78.17
2018-03-03T08:57:42.853Z,77.63
2018-03-03T09:00:10.667Z,78.70
2018-03-03T09:02:39.009Z,77.07
2018-03-03T09:05:06.651Z,73.07
2018-03-03T09:07:34.229Z,68.20
2018-03-03T09:10:01.944Z,76.33
2018-03-03T09:12:29.807Z,81.13
2018-03-03T09:14:58.529Z,80.33
2018-03-03T09:17:26.220Z,80.00
2018-03-03T09:19:53.874Z,76.03
2018-03-03T09:22:21.547Z,76.73
2018-03-03T09:24:49.247Z,76.97
2018-03-03T09:27:17.074Z,74.27
2018-03-03T09:29:46.280Z,76.30
2018-03-03T09:32:13.935Z,76.53
2018-03-03T09:34:41.595Z,73.33
2018-03-03T09:37:09.241Z,70.47
2018-03-03T09:39:36.930Z,72.33
2018-03-03T09:42:04.555Z,76.73
2018-03-03T09:44:32.167Z,65.03
2018-03-03T09:46:59.774Z,67.83
2018-03-03T09:49:31.228Z,68.23
2018-03-03T09:51:59.954Z,59.27
2018-03-03T09:54:27.560Z,59.60
2018-03-03T09:56:55.167Z,63.40
2018-03-03T09:59:23.602Z,67.00
2018-03-03T10:01:52.334Z,60.10
2018-03-03T10:04:18.911Z,57.13
2018-03-03T10:06:47.737Z,63.63
2018-03-03T10:09:15.331Z,57.90
2018-03-03T10:11:44.939Z,60.67
2018-03-03T10:14:12.601Z,54.30
2018-03-03T10:16:40.221Z,54.20
2018-03-03T10:19:08.065Z,55.97
2018-03-03T10:21:35.778Z,57.57
2018-03-03T10:24:04.295Z,58.03
2018-03-03T10:26:31.937Z,54.03
2018-03-03T10:28:59.601Z,58.60
2018-03-03T10:31:27.327Z,54.57
2018-03-03T10:33:54.957Z,57.23
2018-03-03T10:36:22.518Z,58.80
2018-03-03T10:38:50.539Z,57.10
2018-03-03T10:41:18.904Z,48.47
2018-03-03T10:43:46.517Z,50.97
2018-03-03T10:46:14.943Z,53.47
2018-03-03T10:48:42.527Z,45.33
2018-03-03T10:51:10.126Z,48.87
2018-03-03T10:53:37.725Z,52.43
2018-03-03T10:56:05.327Z,53.10
2018-03-03T10:58:32.974Z,52.53
2018-03-03T11:01:00.581Z,48.43
2018-03-03T11:03:28.226Z,54.70
2018-03-03T11:05:55.821Z,55.67
2018-03-03T11:08:24.187Z,54.70
2018-03-03T11:10:52.714Z,50.90
2018-03-03T11:13:20.314Z,52.13
2018-03-03T11:15:49.484Z,54.27
2018-03-03T11:18:17.334Z,51.83
2018-03-03T11:20:45.007Z,54.87
2018-03-03T11:23:12.606Z,61.63
2018-03-03T11:25:41.796Z,52.10
2018-03-03T11:28:09.440Z,55.43
2018-03-03T11:30:37.026Z,52.20
2018-03-03T11:33:04.647Z,52.87
2018-03-03T11:35:32.278Z,49.17
2018-03-03T11:38:00.796Z,50.63
2018-03-03T11:40:33.134Z,54.87
2018-03-03T11:42:58.490Z,57.80
2018-03-03T11:45:26.084Z,41.23
2018-03-03T11:47:53.703Z,52.60
2018-03-03T11:50:21.294Z,54.30
2018-03-03T11:52:49.740Z,52.20
2018-03-03T11:55:17.555Z,54.33
2018-03-03T11:57:45.187Z,47.70
2018-03-03T12:00:13.950Z,50.93
2018-03-03T12:02:41.608Z,57.73
2018-03-03T12:05:09.227Z,55.67
2018-03-03T12:07:36.835Z,54.43
2018-03-03T12:10:04.447Z,57.40
2018-03-03T12:12:32.032Z,60.47
2018-03-03T12:14:59.619Z,61.10
2018-03-03T12:17:27.246Z,55.83
2018-03-03T12:19:55.024Z,56.53
2018-03-03T12:22:22.624Z,56.50
2018-03-03T12:24:50.998Z,55.30
2018-03-03T12:27:18.615Z,57.47
2018-03-03T12:29:46.744Z,61.03
2018-03-03T12:32:14.426Z,52.20
2018-03-03T12:34:42.051Z,58.27
2018-03-03T12:37:09.654Z,62.77
2018-03-03T12:39:37.991Z,64.53
2018-03-03T12:42:05.669Z,58.57
2018-03-03T12:44:33.273Z,62.60
2018-03-03T12:47:00.842Z,56.37
2018-03-03T12:49:28.444Z,56.27
2018-03-03T12:51:56.083Z,52.53
2018-03-03T12:54:23.696Z,51.10
2018-03-03T12:56:52.137Z,51.13
2018-03-03T12:59:19.740Z,50.37
2018-03-03T13:01:47.379Z,58.83
2018-03-03T13:04:14.963Z,55.13
2018-03-03T13:06:44.056Z,50.67
2018-03-03T13:09:11.668Z,56.83
2018-03-03T13:11:39.286Z,60.87
2018-03-03T13:14:06.875Z,57.57
2018-03-03T13:16:34.455Z,45.97
2018-03-03T13:19:02.070Z,57.83
2018-03-03T13:21:29.700Z,58.90
2018-03-03T13:23:57.349Z,56.53
2018-03-03T13:26:24.924Z,53.43
2018-03-03T13:28:52.535Z,49.57
2018-03-03T13:31:20.127Z,52.97
2018-03-03T13:33:47.926Z,57.63
2018-03-03T13:36:15.505Z,51.93
2018-03-03T13:38:43.079Z,56.97
2018-03-03T13:41:12.320Z,55.83
2018-03-03T13:43:39.936Z,59.37
2018-03-03T13:46:07.567Z,56.60
2018-03-03T13:48:35.161Z,57.93
2018-03-03T13:51:02.843Z,57.97
2018-03-03T13:53:30.462Z,58.97
2018-03-03T13:55:58.166Z,60.57
2018-03-03T13:58:25.793Z,61.03
2018-03-03T14:00:53.411Z,61.57
2018-03-03T14:03:21.790Z,60.87
2018-03-03T14:05:50.167Z,61.90
2018-03-03T14:08:17.787Z,50.23
2018-03-03T14:10:45.365Z,60.17
2018-03-03T14:13:13.966Z,70.63
2018-03-03T14:15:42.391Z,69.20
2018-03-03T14:18:10.152Z,64.00
2018-03-03T14:20:38.548Z,61.60
2018-03-03T14:23:06.320Z,64.53
2018-03-03T14:25:33.952Z,66.40
2018-03-03T14:28:03.367Z,53.27
2018-03-03T14:30:32.755Z,70.20
2018-03-03T14:33:00.467Z,70.73
2018-03-03T14:35:28.092Z,60.87
2018-03-03T14:37:56.483Z,76.73
2018-03-03T14:40:24.086Z,64.70
2018-03-03T14:42:51.732Z,66.47
2018-03-03T14:45:19.307Z,63.50
2018-03-03T14:47:46.913Z,63.27
2018-03-03T14:50:15.642Z,72.57
2018-03-03T14:52:43.365Z,66.27
2018-03-03T14:55:10.947Z,68.30
2018-03-03T14:57:38.571Z,64.30
2018-03-03T15:00:06.200Z,70.83
2018-03-03T15:02:33.780Z,66.20
2018-03-03T15:05:01.384Z,63.50
2018-03-03T15:07:28.979Z,64.80
2018-03-03T15:09:57.448Z,63.37
2018-03-03T15:12:25.813Z,61.03
2018-03-03T15:14:53.419Z,65.77
2018-03-03T15:17:21.012Z,62.70
2018-03-03T15:19:48.649Z,65.03
2018-03-03T15:22:16.996Z,75.90
2018-03-03T15:24:44.594Z,72.80
2018-03-03T15:27:12.226Z,70.30
2018-03-03T15:29:40.589Z,72.67
2018-03-03T15:32:09.758Z,75.23
2018-03-03T15:34:37.385Z,75.97
2018-03-03T15:37:05.695Z,69.40
2018-03-03T15:39:33.410Z,72.90
2018-03-03T15:42:01.231Z,79.63
2018-03-03T15:44:28.830Z,75.90
2018-03-03T15:46:57.978Z,73.33
2018-03-03T15:49:25.574Z,71.57
2018-03-03T15:51:53.177Z,79.67
2018-03-03T15:54:21.579Z,77.80
2018-03-03T15:56:49.411Z,74.00
2018-03-03T15:59:17.121Z,77.33
2018-03-03T16:01:44.766Z,76.00
2018-03-03T16:04:12.361Z,71.27
2018-03-03T16:06:39.969Z,74.20
2018-03-03T16:09:07.604Z,75.53
2018-03-03T16:11:35.243Z,76.77
2018-03-03T16:14:02.835Z,84.97
2018-03-03T16:16:31.618Z,73.27
2018-03-03T16:18:59.187Z,71.27
2018-03-03T16:21:26.787Z,79.13
2018-03-03T16:23:55.163Z,74.60
2018-03-03T16:26:22.777Z,71.30
2018-03-03T16:28:50.387Z,78.63
2018-03-03T16:31:17.992Z,84.50
2018-03-03T16:33:45.634Z,108.03
2018-03-03T16:36:13.426Z,78.40
2018-03-03T16:38:41.350Z,86.43
2018-03-03T16:41:10.485Z,77.77
2018-03-03T16:43:38.079Z,74.60
2018-03-03T16:46:05.800Z,76.13
2018-03-03T16:48:34.322Z,74.53
2018-03-03T16:51:01.935Z,75.60
2018-03-03T16:53:29.524Z,72.93
2018-03-03T16:55:57.438Z,76.50
2018-03-03T16:58:25.638Z,71.20
2018-03-03T17:00:55.301Z,80.97
2018-03-03T17:03:22.924Z,76.33
2018-03-03T17:05:50.523Z,80.50
2018-03-03T17:08:18.100Z,89.17
2018-03-03T17:10:45.736Z,84.03
2018-03-03T17:13:20.034Z,77.33
2018-03-03T17:15:48.456Z,81.30
2018-03-03T17:18:16.063Z,83.03
2018-03-03T17:20:43.653Z,78.83
2018-03-03T17:23:11.337Z,85.73
2018-03-03T17:25:38.953Z,86.63
2018-03-03T17:28:06.612Z,77.50
2018-03-03T17:30:34.226Z,78.10
2018-03-03T17:33:01.849Z,79.10
2018-03-03T17:35:29.598Z,81.53
2018-03-03T17:37:57.555Z,82.87
2018-03-03T17:40:25.219Z,83.73
2018-03-03T17:42:52.837Z,90.60
2018-03-03T17:45:21.280Z,83.53
2018-03-03T17:47:48.931Z,83.33
2018-03-03T17:50:16.671Z,83.07
2018-03-03T17:52:44.794Z,83.60
2018-03-03T17:55:12.687Z,87.37
2018-03-03T17:57:40.355Z,92.50
2018-03-03T18:00:08.189Z,91.53
2018-03-03T18:02:35.854Z,98.00
2018-03-03T18:05:03.510Z,89.67
2018-03-03T18:07:31.276Z,90.20
2018-03-03T18:09:59.134Z,90.07
2018-03-03T18:12:27.008Z,85.50
2018-03-03T18:14:54.678Z,89.33
2018-03-03T18:17:23.634Z,91.53
2018-03-03T18:19:52.694Z,93.10
2018-03-03T18:22:20.451Z,99.77
2018-03-03T18:24:48.120Z,90.17
2018-03-03T18:27:15.779Z,87.73
2018-03-03T18:29:43.406Z,90.70
2018-03-03T18:32:11.032Z,99.33
2018-03-03T18:34:38.857Z,97.23
2018-03-03T18:37:06.506Z,89.70
2018-03-03T18:39:35.314Z,87.73
2018-03-03T18:42:02.985Z,91.37
2018-03-03T18:44:30.808Z,96.23
2018-03-03T18:46:58.494Z,92.90
2018-03-03T18:49:27.478Z,86.33
2018-03-03T18:51:56.252Z,88.07
2018-03-03T18:54:23.997Z,86.43
2018-03-03T18:56:53.656Z,93.70
2018-03-03T18:59:22.325Z,85.97
2018-03-03T19:01:50.100Z,84.10
2018-03-03T19:04:17.770Z,86.73
2018-03-03T19:06:45.701Z,80.23
2018-03-03T19:09:13.509Z,91.13
2018-03-03T19:11:42.172Z,87.70
2018-03-03T19:14:10.715Z,74.50
2018-03-03T19:16:38.753Z,85.97
2018-03-03T19:19:06.974Z,89.33
2018-03-03T19:21:36.349Z,96.03
2018-03-03T19:24:04.023Z,108.47
2018-03-03T19:26:31.688Z,89.23
2018-03-03T19:28:59.832Z,90.33
2018-03-03T19:31:28.326Z,90.87
2018-03-03T19:33:56.024Z,80.50
2018-03-03T19:36:23.640Z,84.10
2018-03-03T19:38:51.985Z,77.93
2018-03-03T19:41:19.618Z,86.27
2018-03-03T19:43:47.686Z,87.90
2018-03-03T19:46:15.332Z,82.67
2018-03-03T19:48:43.799Z,94.60
2018-03-03T19:51:17.330Z,93.03
2018-03-03T19:53:44.949Z,86.13
2018-03-03T19:56:12.557Z,91.63
2018-03-03T19:58:40.226Z,77.27
2018-03-03T20:01:07.875Z,64.17
2018-03-03T20:03:35.496Z,86.67
2018-03-03T20:06:03.180Z,79.43
2018-03-03T20:08:31.577Z,85.73
2018-03-03T20:11:00.285Z,74.20
2018-03-03T20:13:27.887Z,90.83
2018-03-03T20:15:55.484Z,88.90
2018-03-03T20:18:24.651Z,93.67
2018-03-03T20:20:52.330Z,86.87
2018-03-03T20:23:19.958Z,90.53
2018-03-03T20:25:49.366Z,79.40
2018-03-03T20:28:16.963Z,85.37
2018-03-03T20:30:44.598Z,84.83
2018-03-03T20:33:12.254Z,76.37
2018-03-03T20:35:39.922Z,91.23
2018-03-03T20:38:07.840Z,100.23
2018-03-03T20:40:35.439Z,75.87
2018-03-03T20:43:03.712Z,88.27
2018-03-03T20:45:31.310Z,77.77
2018-03-03T20:47:59.120Z,69.33
2018-03-03T20:50:27.483Z,90.63
2018-03-03T20:52:55.102Z,82.67
2018-03-03T20:55:23.026Z,88.17
2018-03-03T20:57:50.592Z,79.90
2018-03-03T21:00:18.382Z,87.87
2018-03-03T21:02:46.728Z,88.90
2018-03-03T21:05:14.310Z,90.00
2018-03-03T21:07:42.814Z,94.57
2018-03-03T21:10:10.427Z,85.97
2018-03-03T21:12:50.896Z,96.03
2018-03-03T21:15:18.639Z,89.33
2018-03-03T21:17:46.531Z,81.37
2018-03-03T21:20:14.198Z,71.73
2018-03-03T21:22:42.877Z,78.20
2018-03-03T21:25:12.363Z,77.77
2018-03-03T21:27:40.074Z,79.53
2018-03-03T21:30:09.335Z,81.13
2018-03-03T21:32:37.184Z,78.47
2018-03-03T21:35:04.867Z,89.27
2018-03-03T21:37:33.599Z,77.13
2018-03-03T21:40:03.770Z,77.83
2018-03-03T21:42:31.516Z,74.43
2018-03-03T21:44:59.339Z,78.27
2018-03-03T21:47:29.010Z,86.27
2018-03-03T21:49:57.678Z,86.30
2018-03-03T21:52:26.389Z,78.17
2018-03-03T21:54:54.020Z,74.80
2018-03-03T21:57:21.704Z,81.40
2018-03-03T21:59:50.007Z,73.57
2018-03-03T22:02:18.724Z,69.60
2018-03-03T22:04:48.467Z,72.97
2018-03-03T22:07:16.231Z,69.33
2018-03-03T22:09:45.240Z,85.67
2018-03-03T22:12:12.953Z,75.27
2018-03-03T22:14:40.596Z,75.40
2018-03-03T22:17:08.183Z,69.43
2018-03-03T22:19:36.426Z,70.07
2018-03-03T22:22:04.075Z,73.87
2018-03-03T22:24:32.475Z,73.97
2018-03-03T22:27:00.120Z,79.73
2018-03-03T22:29:28.656Z,70.23
2018-03-03T22:31:56.571Z,78.17
2018-03-03T22:34:25.075Z,83.00
2018-03-03T22:36:55.800Z,72.83
2018-03-03T22:39:23.576Z,78.43
2018-03-03T22:41:51.313Z,79.77
2018-03-03T22:44:19.822Z,73.73
2018-03-03T22:46:47.480Z,78.73
2018-03-03T22:49:16.860Z,73.53
2018-03-03T22:51:48.525Z,70.77
2018-03-03T22:54:19.510Z,80.80
2018-03-03T22:56:47.236Z,75.47
2018-03-03T22:59:14.811Z,80.47
2018-03-03T23:01:42.603Z,68.40
2018-03-03T23:04:11.810Z,76.60
2018-03-03T23:06:39.798Z,70.67
2018-03-03T23:09:07.413Z,78.17
2018-03-03T23:11:35.058Z,74.13
2018-03-03T23:14:04.580Z,73.00
2018-03-03T23:16:32.943Z,67.57
2018-03-03T23:19:00.542Z,62.00
2018-03-03T23:21:28.904Z,52.10
2018-03-03T23:23:56.642Z,57.80
2018-03-03T23:26:24.264Z,68.43
2018-03-03T23:28:51.848Z,73.43
2018-03-03T23:31:19.465Z,72.47
2018-03-03T23:33:47.889Z,73.53
2018-03-03T23:36:15.659Z,73.13
2018-03-03T23:38:43.451Z,72.43
2018-03-03T23:41:11.339Z,67.73
2018-03-03T23:43:38.972Z,71.17
2018-03-03T23:46:06.713Z,66.33
2018-03-03T23:48:34.337Z,78.10
2018-03-03T23:51:02.056Z,76.60
2018-03-03T23:53:29.656Z,75.73
2018-03-03T23:55:57.844Z,69.17
2018-03-03T23:58:25.674Z,75.80
